createdAt,value
2019-03-23T00:02:08.984Z,41.90
2019-03-23T00:04:39.999Z,44.27
2019-03-23T00:07:11.088Z,43.90
2019-03-23T00:09:42.088Z,44.13
2019-03-23T00:12:13.068Z,44.17
2019-03-23T00:14:44.162Z,41.00
2019-03-23T00:17:15.202Z,40.67
2019-03-23T00:19:46.555Z,44.57
2019-03-23T00:22:17.565Z,43.60
2019-03-23T00:24:48.899Z,41.83
2019-03-23T00:27:19.890Z,42.70
2019-03-23T00:29:50.876Z,42.33
2019-03-23T00:32:22.112Z,41.97
2019-03-23T00:34:53.101Z,41.80
2019-03-23T00:37:24.557Z,43.53
2019-03-23T00:39:56.042Z,42.30
2019-03-23T00:42:27.036Z,40.10
2019-03-23T00:44:58.378Z,38.40
2019-03-23T00:47:29.407Z,41.90
2019-03-23T00:50:00.395Z,45.70
2019-03-23T00:52:31.385Z,42.97
2019-03-23T00:55:02.418Z,38.83
2019-03-23T00:57:33.667Z,42.80
2019-03-23T01:00:04.779Z,44.87
2019-03-23T01:02:35.969Z,41.73
2019-03-23T01:05:07.525Z,46.53
2019-03-23T01:07:38.527Z,40.87
2019-03-23T01:10:11.221Z,43.87
2019-03-23T01:12:43.027Z,40.37
2019-03-23T01:15:14.429Z,44.03
2019-03-23T01:17:45.435Z,45.57
2019-03-23T01:20:16.551Z,44.07
2019-03-23T01:22:47.544Z,45.67
2019-03-23T01:25:20.810Z,44.07
2019-03-23T01:27:51.279Z,41.67
2019-03-23T01:30:22.271Z,42.20
2019-03-23T01:32:53.307Z,43.57
2019-03-23T01:35:24.671Z,38.83
2019-03-23T01:37:55.663Z,40.40
2019-03-23T01:40:26.673Z,38.47
2019-03-23T01:42:57.660Z,45.20
2019-03-23T01:45:29.057Z,46.57
2019-03-23T01:48:00.055Z,39.43
2019-03-23T01:50:31.045Z,44.73
2019-03-23T01:53:02.083Z,41.70
2019-03-23T01:55:33.076Z,48.07
2019-03-23T01:58:04.077Z,38.17
2019-03-23T02:00:35.531Z,44.03
2019-03-23T02:03:06.516Z,45.57
2019-03-23T02:05:37.915Z,44.53
2019-03-23T02:08:08.947Z,41.57
2019-03-23T02:10:41.866Z,39.20
2019-03-23T02:13:13.119Z,46.27
2019-03-23T02:15:44.238Z,46.77
2019-03-23T02:18:15.683Z,46.10
2019-03-23T02:20:46.669Z,43.23
2019-03-23T02:23:17.982Z,42.90
2019-03-23T02:25:48.971Z,41.50
2019-03-23T02:28:20.418Z,43.10
2019-03-23T02:30:51.405Z,40.27
2019-03-23T02:33:22.420Z,43.50
2019-03-23T02:35:54.406Z,42.63
2019-03-23T02:38:25.734Z,47.80
2019-03-23T02:40:57.031Z,46.47
2019-03-23T02:43:28.141Z,47.03
2019-03-23T02:45:59.527Z,41.97
2019-03-23T02:48:30.560Z,47.07
2019-03-23T02:51:02.332Z,44.80
2019-03-23T02:53:33.317Z,40.90
2019-03-23T02:56:04.420Z,44.93
2019-03-23T02:58:35.834Z,41.87
2019-03-23T03:01:06.816Z,42.57
2019-03-23T03:03:37.941Z,48.43
2019-03-23T03:06:09.317Z,47.03
2019-03-23T03:08:40.321Z,45.27
2019-03-23T03:11:11.744Z,42.30
2019-03-23T03:13:43.142Z,47.13
2019-03-23T03:16:14.186Z,44.83
2019-03-23T03:18:45.207Z,45.03
2019-03-23T03:21:16.599Z,45.13
2019-03-23T03:23:48.360Z,43.77
2019-03-23T03:26:19.359Z,46.30
2019-03-23T03:28:50.479Z,46.77
2019-03-23T03:31:21.438Z,45.60
2019-03-23T03:33:52.417Z,46.40
2019-03-23T03:36:23.449Z,43.57
2019-03-23T03:38:54.432Z,48.53
2019-03-23T03:41:25.767Z,46.70
2019-03-23T03:43:56.742Z,47.50
2019-03-23T03:46:28.160Z,50.30
2019-03-23T03:49:11.751Z,51.20
2019-03-23T03:51:31.829Z,46.03
2019-03-23T03:54:02.837Z,48.43
2019-03-23T03:56:33.856Z,48.77
2019-03-23T03:59:04.833Z,49.77
2019-03-23T04:01:35.815Z,47.57
2019-03-23T04:04:07.140Z,43.77
2019-03-23T04:06:38.118Z,45.13
2019-03-23T04:09:09.105Z,48.67
2019-03-23T04:11:40.155Z,49.67
2019-03-23T04:14:11.142Z,46.43
2019-03-23T04:16:42.151Z,47.93
2019-03-23T04:19:13.126Z,45.90
2019-03-23T04:21:44.148Z,48.80
2019-03-23T04:24:15.128Z,49.37
2019-03-23T04:26:46.194Z,46.37
2019-03-23T04:29:17.300Z,45.87
2019-03-23T04:31:48.281Z,48.23
2019-03-23T04:34:19.304Z,49.60
2019-03-23T04:36:50.288Z,44.97
2019-03-23T04:39:21.268Z,46.67
2019-03-23T04:41:52.300Z,42.57
2019-03-23T04:44:23.278Z,47.70
2019-03-23T04:46:54.255Z,47.47
2019-03-23T04:49:25.283Z,49.43
2019-03-23T04:51:56.274Z,51.23
2019-03-23T04:54:27.253Z,48.87
2019-03-23T04:56:58.277Z,46.70
2019-03-23T04:59:29.253Z,37.37
2019-03-23T05:02:00.288Z,35.00
2019-03-23T05:04:31.642Z,39.83
2019-03-23T05:07:02.619Z,35.67
2019-03-23T05:09:33.642Z,36.87
2019-03-23T05:12:04.762Z,36.33
2019-03-23T05:14:35.738Z,36.67
2019-03-23T05:17:06.783Z,42.60
2019-03-23T05:19:37.766Z,47.23
2019-03-23T05:22:09.051Z,47.03
2019-03-23T05:24:40.076Z,49.20
2019-03-23T05:27:11.051Z,50.23
2019-03-23T05:29:42.032Z,47.33
2019-03-23T05:32:13.075Z,50.80
2019-03-23T05:34:44.218Z,47.70
2019-03-23T05:37:15.927Z,51.83
2019-03-23T05:39:47.306Z,45.33
2019-03-23T05:42:18.627Z,65.20
2019-03-23T05:44:49.640Z,72.07
2019-03-23T05:47:20.672Z,69.03
2019-03-23T05:49:52.068Z,74.70
2019-03-23T05:52:23.326Z,67.83
2019-03-23T05:54:54.370Z,71.17
2019-03-23T05:57:25.710Z,75.33
2019-03-23T05:59:56.737Z,81.40
2019-03-23T06:02:27.719Z,86.23
2019-03-23T06:04:58.708Z,79.00
2019-03-23T06:07:30.090Z,83.67
2019-03-23T06:10:01.067Z,89.47
2019-03-23T06:12:32.088Z,93.80
2019-03-23T06:15:04.352Z,91.33
2019-03-23T06:17:36.436Z,91.77
2019-03-23T06:20:08.454Z,93.90
2019-03-23T06:22:39.491Z,98.97
2019-03-23T06:25:10.679Z,94.00
2019-03-23T06:27:41.656Z,107.87
2019-03-23T06:30:12.904Z,102.70
2019-03-23T06:32:44.224Z,111.83
2019-03-23T06:35:15.671Z,112.73
2019-03-23T06:37:46.720Z,107.43
2019-03-23T06:40:17.702Z,112.73
2019-03-23T06:42:59.160Z,99.73
2019-03-23T06:45:21.580Z,113.53
2019-03-23T06:47:52.563Z,122.33
2019-03-23T06:50:23.548Z,133.57
2019-03-23T06:52:54.636Z,105.03
2019-03-23T06:55:25.960Z,131.93
2019-03-23T06:57:57.624Z,108.03
2019-03-23T07:00:28.659Z,115.87
2019-03-23T07:02:59.651Z,118.17
2019-03-23T07:05:30.739Z,116.87
2019-03-23T07:08:02.098Z,123.27
2019-03-23T07:10:33.089Z,105.80
2019-03-23T07:13:04.064Z,131.60
2019-03-23T07:15:35.127Z,120.67
2019-03-23T07:18:06.115Z,127.83
2019-03-23T07:20:37.100Z,131.40
2019-03-23T07:23:08.130Z,134.83
2019-03-23T07:25:39.817Z,121.67
2019-03-23T07:28:10.804Z,124.97
2019-03-23T07:30:41.969Z,119.53
2019-03-23T07:33:12.922Z,122.83
2019-03-23T07:35:44.197Z,126.23
2019-03-23T07:38:15.581Z,136.83
2019-03-23T07:40:46.667Z,127.83
2019-03-23T07:43:18.089Z,133.50
2019-03-23T07:45:49.266Z,112.53
2019-03-23T07:48:20.922Z,116.30
2019-03-23T07:50:51.905Z,108.93
2019-03-23T07:53:22.938Z,111.00
2019-03-23T07:55:53.934Z,116.10
2019-03-23T07:58:24.924Z,95.80
2019-03-23T08:00:56.296Z,95.70
2019-03-23T08:03:27.317Z,107.20
2019-03-23T08:05:58.662Z,97.90
2019-03-23T08:08:29.948Z,97.27
2019-03-23T08:11:00.918Z,96.23
2019-03-23T08:13:32.050Z,95.50
2019-03-23T08:16:03.569Z,97.67
2019-03-23T08:18:34.910Z,97.77
2019-03-23T08:21:05.923Z,96.37
2019-03-23T08:23:37.069Z,96.60
2019-03-23T08:26:08.446Z,95.23
2019-03-23T08:28:39.433Z,91.83
2019-03-23T08:31:10.399Z,94.67
2019-03-23T08:33:41.431Z,92.63
2019-03-23T08:36:13.313Z,94.67
2019-03-23T08:38:44.305Z,93.20
2019-03-23T08:41:15.328Z,91.43
2019-03-23T08:43:46.666Z,94.17
2019-03-23T08:46:18.115Z,90.43
2019-03-23T08:48:49.119Z,96.87
2019-03-23T08:51:20.102Z,98.67
2019-03-23T08:53:51.139Z,97.30
2019-03-23T08:56:22.570Z,96.93
2019-03-23T08:58:55.462Z,94.72
2019-03-23T09:01:27.153Z,91.73
2019-03-23T09:03:58.158Z,93.03
2019-03-23T09:06:29.148Z,96.63
2019-03-23T09:09:00.183Z,96.03
2019-03-23T09:11:31.538Z,90.50
2019-03-23T09:14:02.524Z,88.90
2019-03-23T09:16:33.575Z,93.67
2019-03-23T09:19:04.974Z,87.70
2019-03-23T09:21:35.953Z,85.43
2019-03-23T09:24:07.042Z,90.27
2019-03-23T09:26:38.016Z,83.37
2019-03-23T09:29:08.994Z,83.47
2019-03-23T09:31:40.017Z,83.30
2019-03-23T09:34:11.490Z,84.47
2019-03-23T09:36:42.755Z,82.80
2019-03-23T09:39:13.734Z,90.13
2019-03-23T09:41:44.745Z,83.57
2019-03-23T09:44:15.717Z,86.27
2019-03-23T09:46:47.129Z,86.07
2019-03-23T09:49:18.270Z,83.33
2019-03-23T09:51:49.251Z,83.20
2019-03-23T09:54:20.291Z,78.80
2019-03-23T09:56:51.270Z,91.37
2019-03-23T09:59:22.247Z,91.17
2019-03-23T10:01:53.282Z,89.10
2019-03-23T10:04:24.274Z,88.20
2019-03-23T10:06:55.258Z,85.97
2019-03-23T10:09:26.283Z,81.07
2019-03-23T10:11:59.126Z,81.87
2019-03-23T10:14:29.949Z,87.80
2019-03-23T10:17:01.282Z,80.90
2019-03-23T10:19:32.682Z,89.27
2019-03-23T10:22:03.832Z,81.03
2019-03-23T10:24:34.837Z,83.40
2019-03-23T10:27:05.919Z,81.27
2019-03-23T10:29:37.266Z,81.33
2019-03-23T10:32:08.621Z,81.70
2019-03-23T10:34:39.648Z,92.27
2019-03-23T10:37:11.341Z,84.13
2019-03-23T10:39:42.299Z,86.90
2019-03-23T10:42:16.125Z,91.67
2019-03-23T10:44:46.694Z,85.50
2019-03-23T10:47:17.714Z,92.60
2019-03-23T10:49:48.728Z,85.00
2019-03-23T10:52:19.750Z,87.33
2019-03-23T10:54:50.755Z,88.27
2019-03-23T10:57:21.735Z,94.83
2019-03-23T10:59:52.748Z,90.33
2019-03-23T11:02:23.739Z,101.67
2019-03-23T11:04:54.771Z,89.33
2019-03-23T11:07:25.753Z,92.73
2019-03-23T11:09:56.738Z,81.67
2019-03-23T11:12:27.774Z,89.13
2019-03-23T11:14:58.787Z,87.47
2019-03-23T11:17:29.828Z,89.73
2019-03-23T11:20:00.868Z,87.03
2019-03-23T11:22:31.847Z,85.87
2019-03-23T11:25:02.834Z,87.30
2019-03-23T11:27:34.203Z,85.63
2019-03-23T11:30:06.089Z,88.50
2019-03-23T11:32:37.454Z,84.10
2019-03-23T11:35:08.767Z,83.13
2019-03-23T11:37:40.025Z,80.03
2019-03-23T11:40:11.362Z,80.30
2019-03-23T11:42:49.976Z,78.67
2019-03-23T11:45:15.649Z,91.57
2019-03-23T11:47:46.670Z,86.90
2019-03-23T11:50:17.669Z,83.17
2019-03-23T11:52:48.851Z,83.47
2019-03-23T11:55:19.996Z,69.57
2019-03-23T11:57:50.984Z,81.93
2019-03-23T12:00:22.287Z,71.23
2019-03-23T12:02:53.602Z,76.20
2019-03-23T12:05:24.682Z,68.97
2019-03-23T12:07:56.061Z,75.33
2019-03-23T12:10:27.098Z,68.80
2019-03-23T12:12:58.154Z,74.60
2019-03-23T12:15:30.930Z,71.43
2019-03-23T12:18:02.711Z,70.53
2019-03-23T12:20:34.218Z,73.47
2019-03-23T12:23:05.468Z,68.87
2019-03-23T12:25:36.514Z,72.90
2019-03-23T12:28:07.553Z,69.03
2019-03-23T12:30:38.530Z,67.37
2019-03-23T12:33:09.672Z,74.57
2019-03-23T12:35:40.670Z,69.07
2019-03-23T12:38:11.667Z,66.60
2019-03-23T12:40:42.706Z,63.93
2019-03-23T12:43:13.696Z,61.07
2019-03-23T12:45:44.974Z,68.00
2019-03-23T12:48:16.010Z,58.93
2019-03-23T12:50:46.992Z,176.12
2019-03-23T12:53:17.982Z,60.47
2019-03-23T12:55:49.779Z,78.50
2019-03-23T12:58:22.814Z,63.47
2019-03-23T13:00:53.507Z,62.10
2019-03-23T13:03:24.882Z,59.47
2019-03-23T13:05:55.858Z,57.07
2019-03-23T13:08:26.901Z,57.60
2019-03-23T13:10:57.897Z,107.67
2019-03-23T13:13:29.292Z,59.93
2019-03-23T13:16:00.736Z,58.43
2019-03-23T13:18:32.039Z,93.23
2019-03-23T13:21:03.306Z,166.67
2019-03-23T13:23:34.836Z,158.70
2019-03-23T13:26:05.831Z,51.00
2019-03-23T13:28:36.833Z,51.00
2019-03-23T13:31:08.357Z,48.80
2019-03-23T13:33:41.375Z,47.60
2019-03-23T13:36:14.575Z,49.93
2019-03-23T13:38:45.991Z,51.20
2019-03-23T13:41:16.987Z,47.17
2019-03-23T13:43:48.040Z,47.17
2019-03-23T13:46:19.027Z,48.47
2019-03-23T13:48:50.268Z,47.37
2019-03-23T13:51:21.331Z,48.97
2019-03-23T13:53:52.796Z,50.43
2019-03-23T13:56:24.117Z,49.40
2019-03-23T13:58:55.650Z,44.23
2019-03-23T14:01:26.822Z,49.93
2019-03-23T14:03:57.862Z,46.30
2019-03-23T14:06:28.909Z,48.20
2019-03-23T14:09:00.091Z,48.00
2019-03-23T14:11:32.191Z,50.50
2019-03-23T14:14:03.900Z,46.53
2019-03-23T14:16:34.891Z,43.10
2019-03-23T14:19:06.068Z,44.17
2019-03-23T14:21:37.379Z,42.67
2019-03-23T14:24:09.597Z,42.77
2019-03-23T14:26:40.697Z,43.43
2019-03-23T14:29:11.846Z,40.27
2019-03-23T14:31:43.335Z,47.27
2019-03-23T14:34:14.384Z,47.17
2019-03-23T14:36:45.424Z,45.77
2019-03-23T14:39:16.409Z,45.63
2019-03-23T14:41:47.441Z,47.57
2019-03-23T14:44:18.479Z,44.43
2019-03-23T14:46:50.761Z,47.20
2019-03-23T14:49:21.971Z,46.13
2019-03-23T14:51:53.412Z,44.63
2019-03-23T14:54:26.301Z,48.57
2019-03-23T14:56:57.329Z,41.13
2019-03-23T14:59:28.502Z,45.27
2019-03-23T15:01:59.913Z,47.93
2019-03-23T15:04:31.003Z,49.57
2019-03-23T15:07:02.034Z,48.37
2019-03-23T15:09:33.826Z,47.20
2019-03-23T15:12:14.550Z,48.73
2019-03-23T15:14:37.947Z,49.60
2019-03-23T15:17:09.041Z,49.60
2019-03-23T15:19:40.768Z,48.23
2019-03-23T15:22:11.814Z,50.90
2019-03-23T15:24:42.800Z,52.87
2019-03-23T15:27:14.179Z,50.70
2019-03-23T15:29:45.555Z,50.90
2019-03-23T15:32:18.080Z,56.05
2019-03-23T15:34:49.255Z,49.03
2019-03-23T15:37:20.696Z,47.97
2019-03-23T15:39:51.684Z,48.93
2019-03-23T15:42:25.014Z,51.73
2019-03-23T15:44:55.527Z,51.03
2019-03-23T15:47:26.620Z,49.10
2019-03-23T15:49:59.179Z,51.30
2019-03-23T15:52:30.219Z,50.07
2019-03-23T15:55:03.135Z,51.20
2019-03-23T15:57:33.910Z,54.43
2019-03-23T16:00:05.864Z,52.70
2019-03-23T16:02:36.851Z,53.30
2019-03-23T16:05:08.519Z,53.77
2019-03-23T16:07:39.951Z,54.43
2019-03-23T16:10:11.636Z,56.63
2019-03-23T16:12:42.634Z,55.33
2019-03-23T16:15:14.049Z,56.83
2019-03-23T16:17:45.051Z,53.67
2019-03-23T16:20:17.224Z,55.43
2019-03-23T16:22:48.273Z,59.50
2019-03-23T16:25:19.275Z,59.43
2019-03-23T16:27:50.268Z,56.37
2019-03-23T16:30:30.399Z,56.30
2019-03-23T16:33:01.856Z,56.37
2019-03-23T16:35:33.363Z,56.27
2019-03-23T16:38:04.819Z,54.30
2019-03-23T16:40:36.937Z,53.97
2019-03-23T16:43:08.024Z,53.70
2019-03-23T16:45:39.477Z,59.93
2019-03-23T16:48:10.587Z,58.03
2019-03-23T16:50:42.775Z,59.27
2019-03-23T16:53:14.214Z,62.07
2019-03-23T16:55:45.229Z,60.83
2019-03-23T16:58:17.866Z,60.17
2019-03-23T17:00:49.030Z,61.13
2019-03-23T17:03:21.437Z,60.37
2019-03-23T17:05:52.428Z,59.23
2019-03-23T17:08:23.807Z,57.57
2019-03-23T17:10:57.250Z,58.17
2019-03-23T17:13:28.639Z,63.47
2019-03-23T17:16:00.173Z,68.17
2019-03-23T17:18:31.491Z,60.80
2019-03-23T17:21:02.625Z,61.37
2019-03-23T17:23:34.096Z,63.00
2019-03-23T17:26:05.539Z,62.30
2019-03-23T17:28:36.922Z,62.23
2019-03-23T17:31:08.251Z,64.10
2019-03-23T17:33:39.553Z,68.13
2019-03-23T17:36:10.568Z,68.30
2019-03-23T17:38:41.612Z,68.00
2019-03-23T17:41:12.597Z,68.47
2019-03-23T17:43:43.671Z,63.73
2019-03-23T17:46:14.872Z,66.17
2019-03-23T17:48:46.269Z,68.40
2019-03-23T17:51:18.356Z,72.33
2019-03-23T17:53:58.307Z,68.93
2019-03-23T17:56:25.060Z,67.60
2019-03-23T17:58:56.213Z,69.97
2019-03-23T18:01:27.744Z,68.20
2019-03-23T18:03:59.068Z,64.20
2019-03-23T18:06:30.153Z,67.67
2019-03-23T18:09:01.158Z,69.27
2019-03-23T18:11:32.252Z,66.53
2019-03-23T18:14:03.641Z,64.87
2019-03-23T18:16:34.663Z,66.43
2019-03-23T18:19:05.667Z,65.00
2019-03-23T18:21:37.849Z,64.93
2019-03-23T18:24:08.963Z,70.30
2019-03-23T18:26:41.702Z,62.63
2019-03-23T18:29:12.700Z,68.40
2019-03-23T18:31:43.730Z,69.80
2019-03-23T18:34:15.038Z,72.00
2019-03-23T18:36:46.235Z,80.33
2019-03-23T18:39:17.686Z,77.53
2019-03-23T18:41:48.673Z,81.83
2019-03-23T18:44:19.680Z,79.73
2019-03-23T18:46:50.708Z,86.57
2019-03-23T18:49:21.700Z,85.03
2019-03-23T18:51:52.868Z,87.83
2019-03-23T18:54:23.907Z,85.53
2019-03-23T18:56:55.184Z,87.13
2019-03-23T18:59:27.207Z,92.13
2019-03-23T19:01:58.437Z,81.33
2019-03-23T19:04:31.006Z,77.70
2019-03-23T19:07:04.157Z,95.77
2019-03-23T19:09:35.227Z,86.97
2019-03-23T19:12:06.633Z,92.23
2019-03-23T19:14:37.670Z,89.47
2019-03-23T19:17:08.697Z,83.37
2019-03-23T19:19:39.728Z,89.53
2019-03-23T19:22:11.627Z,75.10
2019-03-23T19:24:42.741Z,80.67
2019-03-23T19:27:14.800Z,90.27
2019-03-23T19:29:45.916Z,77.30
2019-03-23T19:32:16.970Z,76.73
2019-03-23T19:34:47.999Z,80.00
2019-03-23T19:37:22.303Z,76.67
2019-03-23T19:39:53.499Z,65.77
2019-03-23T19:42:24.492Z,69.23
2019-03-23T19:44:55.641Z,65.50
2019-03-23T19:47:26.728Z,68.83
2019-03-23T19:49:57.716Z,65.70
2019-03-23T19:52:28.752Z,65.77
2019-03-23T19:55:00.271Z,63.97
2019-03-23T19:57:31.279Z,62.23
2019-03-23T20:00:02.446Z,61.10
2019-03-23T20:02:34.439Z,52.80
2019-03-23T20:05:26.179Z,47.80
2019-03-23T20:07:57.907Z,46.47
2019-03-23T20:10:32.299Z,49.00
2019-03-23T20:13:04.271Z,44.37
2019-03-23T20:15:35.445Z,42.70
2019-03-23T20:18:06.581Z,42.00
2019-03-23T20:20:37.738Z,41.70
2019-03-23T20:23:08.855Z,45.23
2019-03-23T20:25:40.011Z,39.80
2019-03-23T20:28:11.431Z,41.40
2019-03-23T20:30:42.475Z,45.23
2019-03-23T20:33:19.305Z,43.70
2019-03-23T20:35:46.352Z,45.00
2019-03-23T20:38:17.601Z,48.17
2019-03-23T20:40:48.627Z,42.27
2019-03-23T20:43:20.441Z,42.10
2019-03-23T20:45:51.782Z,45.53
2019-03-23T20:48:23.739Z,39.27
2019-03-23T20:50:56.890Z,43.00
2019-03-23T20:53:28.009Z,38.03
2019-03-23T20:55:59.473Z,42.00
2019-03-23T20:58:30.697Z,42.17
2019-03-23T21:01:01.683Z,43.70
2019-03-23T21:03:34.511Z,42.43
2019-03-23T21:06:05.602Z,43.80
2019-03-23T21:08:36.572Z,35.20
2019-03-23T21:11:07.606Z,41.57
2019-03-23T21:13:38.996Z,40.93
2019-03-23T21:16:10.094Z,34.77
2019-03-23T21:18:41.166Z,37.30
2019-03-23T21:21:12.846Z,36.77
2019-03-23T21:23:43.821Z,43.20
2019-03-23T21:26:16.452Z,36.97
2019-03-23T21:28:47.447Z,44.97
2019-03-23T21:31:19.003Z,41.57
2019-03-23T21:33:50.092Z,36.13
2019-03-23T21:36:21.796Z,35.73
2019-03-23T21:38:53.721Z,40.43
2019-03-23T21:41:26.420Z,39.50
2019-03-23T21:43:59.231Z,40.10
2019-03-23T21:46:30.213Z,37.17
2019-03-23T21:49:01.591Z,30.57
2019-03-23T21:51:32.571Z,35.10
2019-03-23T21:54:03.547Z,36.63
2019-03-23T21:56:34.971Z,28.50
2019-03-23T21:59:05.946Z,30.90
2019-03-23T22:01:37.322Z,31.10
2019-03-23T22:04:10.526Z,36.97
2019-03-23T22:06:41.507Z,27.53
2019-03-23T22:09:12.486Z,25.83
2019-03-23T22:11:45.935Z,24.37
2019-03-23T22:14:16.987Z,24.67
2019-03-23T22:16:47.980Z,23.10
2019-03-23T22:19:19.042Z,26.07
2019-03-23T22:21:50.481Z,25.20
2019-03-23T22:24:21.482Z,29.57
2019-03-23T22:26:52.931Z,26.43
2019-03-23T22:29:23.907Z,25.20
2019-03-23T22:31:55.354Z,22.57
2019-03-23T22:34:26.375Z,22.60
2019-03-23T22:36:57.351Z,23.47
2019-03-23T22:39:28.325Z,19.60
2019-03-23T22:41:59.376Z,26.13
2019-03-23T22:44:30.449Z,21.20
2019-03-23T22:47:01.422Z,23.23
2019-03-23T22:49:32.437Z,24.17
2019-03-23T22:52:03.404Z,24.33
2019-03-23T22:54:34.765Z,19.03
2019-03-23T22:57:05.802Z,20.10
2019-03-23T22:59:36.779Z,16.40
2019-03-23T23:02:07.755Z,20.63
2019-03-23T23:04:38.781Z,17.97
2019-03-23T23:07:09.757Z,22.03
2019-03-23T23:09:40.730Z,20.47
2019-03-23T23:12:11.756Z,21.47
2019-03-23T23:14:42.729Z,19.63
2019-03-23T23:17:13.710Z,21.57
2019-03-23T23:19:44.805Z,22.83
2019-03-23T23:22:16.157Z,20.57
2019-03-23T23:24:47.134Z,21.30
2019-03-23T23:27:18.156Z,15.57
2019-03-23T23:29:49.454Z,19.57
2019-03-23T23:32:20.421Z,21.63
2019-03-23T23:34:51.438Z,15.23
2019-03-23T23:37:22.408Z,21.23
2019-03-23T23:39:53.495Z,20.60
2019-03-23T23:42:24.904Z,17.47
2019-03-23T23:44:55.871Z,22.57
2019-03-23T23:47:26.893Z,15.13
2019-03-23T23:49:58.245Z,19.17
2019-03-23T23:52:29.694Z,18.90
2019-03-23T23:55:00.727Z,21.73
2019-03-23T23:57:32.183Z,19.13
